Main page
METAR-TAF:

METAR-TAF

Airports :

Cape Town International Airport

Cape Town, South Africa

latitude: 33-59S, longitude: 018-36E, elevation: 42 m

Current weather observation

The report was made 52 minutes ago, at 20:00 UTC
Wind 17 kt from the South
Temperature 18°C
Humidity 73%
Pressure 1019 hPa
Visibility 10 km or more
no clouds below 1500 m and no cumulonimbus

METAR: FACT 212000Z 18017KT CAVOK 18/13 Q1019 NOSIG

Time: 22:52 (20:52 UTC)

Forecast

The report was made 2 hours and 52 minutes ago, at 18:00 UTC
Forecast valid from 21 at 18 UTC to 22 at 24 UTC
Wind 15 kt from the South
Visibility 10 km or more
no clouds below 1500 m and no cumulonimbus
Becoming
from 22 at 12 UTC to 22 at 14 UTC
Wind 25 kt from the South
Probability 30% :
Temporary
from 22 at 12 UTC to 22 at 17 UTC
Wind 25 kt from the South/Southeast with gusts up to 35 kt

TAF: FACT 211800Z 2118/2224 18015KT CAVOK TX25/2212Z TN15/2205Z BECMG 2212/2214 18025KT PROB30 TEMPO 2212/2217 16025G35KT

Weather observations and forecasts of more than 4000 airports (METAR and TAF reports).

The available stations are represented by yellow and red dots on the map.

Hover mouse over dot to see the name of the station.

Then click to see weather observations and forecasts.

To change the map : click on the green buttons with a black cross to zoom in, on the green button with a dash to zoom out, or on the green arrows for adjacent maps.


METAR-TAF: